Carrizo Springs Airport

About
Name: Carrizo Springs Airport
Identifier:  CZT/KCZT
Local Time:  25. Aug 03:59 CDT
Location
Carrizo Springs
  United States

Flights per Day
0 flights
Distance: 322km (200mi)
Punctuality
50% (0 flights per day delayed)
Delay Average: 1068 minutes
Current Weather
 25 C (Humidity: 100%)
  0kt (0km/h / 0mph) from 0°
  8km (5 mi.)
 Mist
 METAR KCZT 250835Z AUTO 00000KT 5SM BR CLR 25/25 A2983 RMK AO2

Current Flights

Departures
Number Departure To Airline
Arrivals
Number Arrival From Airline

Current Delays

Departures
N/A
Arrivals
N/A

Destinations

Top Destinations
Airport Flights
per week
Seats
per week
  Houston (HOU) 1 - 0 0
  Beaumont (BMT) 0 - 0 0
  San Antonio (SAT) 0 - 0 0
  Laredo (LRD) 0 - 0 0
  Houston (IAH) 0 - 0 0
  San Antonio (SSF) 0 - 0 0

Airlines & Planes

Top Airlines
Airline Flights
per Day
Seats
per Day
  Nolinor Aviation 0 -
Jet Charter Inc ( Franklin Lakes Nj ) 0 -
Nordwind Airlines 0 -
  Centennial Airlines 0 -
  National Airlines 0 -
EagleMed 0 -
Top Plane Types
Model Flights Seats
Pilatus PC-12 0.1/day - 0
Beech B300 Super King Air 350 0.1/day - 0
Cessna C208 0.1/day - 0
Beech E90 King Air 0.0/day - 0